createdAt,value
2023-01-12T00:02:24.965Z,102859.28
2023-01-12T00:04:52.686Z,102851.22
2023-01-12T00:07:21.127Z,102847.44
2023-01-12T00:09:49.007Z,102851.47
2023-01-12T00:12:17.051Z,102850.16
2023-01-12T00:14:44.733Z,102847.97
2023-01-12T00:17:15.062Z,102849.84
2023-01-12T00:19:45.304Z,102843.38
2023-01-12T00:22:17.386Z,102832.88
2023-01-12T00:24:55.099Z,102822.63
2023-01-12T00:27:23.566Z,102830.97
2023-01-12T00:29:53.984Z,102831.53
2023-01-12T00:32:22.351Z,102816.13
2023-01-12T00:34:50.958Z,102818.56
2023-01-12T00:37:20.403Z,102810.75
2023-01-12T00:40:01.327Z,102795.03
2023-01-12T00:42:47.969Z,102789.41
2023-01-12T00:45:25.085Z,102788.81
2023-01-12T00:47:54.367Z,102787.66
2023-01-12T00:50:24.261Z,102784.91
2023-01-12T00:52:52.547Z,102775.81
2023-01-12T00:55:21.567Z,102778.41
2023-01-12T00:57:50.092Z,102774.97
2023-01-12T01:00:22.131Z,102769.84
2023-01-12T01:02:54.064Z,102762.50
2023-01-12T01:05:22.265Z,102763.88
2023-01-12T01:07:50.437Z,102761.28
2023-01-12T01:10:18.497Z,102753.41
2023-01-12T01:12:48.577Z,102747.25
2023-01-12T01:15:16.624Z,102741.78
2023-01-12T01:17:44.281Z,102751.91
2023-01-12T01:20:15.751Z,102740.94
2023-01-12T01:22:43.460Z,102735.19
2023-01-12T01:25:11.600Z,102729.75
2023-01-12T01:27:39.370Z,102726.56
2023-01-12T01:30:08.069Z,102713.06
2023-01-12T01:32:36.858Z,102726.44
2023-01-12T01:35:04.753Z,102717.38
2023-01-12T01:37:34.113Z,102714.19
2023-01-12T01:40:01.896Z,102712.75
2023-01-12T01:42:30.104Z,102719.34
2023-01-12T01:45:01.092Z,102719.91
2023-01-12T01:47:41.891Z,102722.94
2023-01-12T01:50:24.536Z,102711.00
2023-01-12T01:52:56.930Z,102717.59
2023-01-12T01:55:27.338Z,102712.41
2023-01-12T01:58:21.049Z,102713.84
2023-01-12T02:00:48.896Z,102711.25
2023-01-12T02:03:16.553Z,102710.66
2023-01-12T02:05:46.669Z,102714.97
2023-01-12T02:08:29.708Z,102716.09
2023-01-12T02:11:00.006Z,102706.59
2023-01-12T02:13:49.651Z,102711.34
2023-01-12T02:16:28.364Z,102716.22
2023-01-12T02:19:15.283Z,102719.53
2023-01-12T02:22:04.115Z,102725.44
2023-01-12T02:24:34.819Z,102721.44
2023-01-12T02:27:20.659Z,102723.44
2023-01-12T02:30:26.274Z,102718.53
2023-01-12T02:33:22.140Z,102715.38
2023-01-12T02:36:11.250Z,102706.72
2023-01-12T02:38:51.536Z,102708.13
2023-01-12T02:41:59.630Z,102704.25
2023-01-12T02:44:54.062Z,102710.84
2023-01-12T02:48:02.755Z,102707.13
2023-01-12T02:50:52.383Z,102713.72
2023-01-12T02:53:23.029Z,102705.13
2023-01-12T02:55:50.820Z,102709.47
2023-01-12T02:58:19.576Z,102709.47
2023-01-12T03:00:49.163Z,102700.84
2023-01-12T03:03:18.228Z,102703.59
2023-01-12T03:05:49.385Z,102694.53
2023-01-12T03:08:19.907Z,102705.19
2023-01-12T03:11:03.443Z,102710.34
2023-01-12T03:13:32.575Z,102704.88
2023-01-12T03:16:00.376Z,102697.69
2023-01-12T03:18:48.477Z,102707.47
2023-01-12T03:21:23.389Z,102707.47
2023-01-12T03:23:56.010Z,102693.22
2023-01-12T03:26:24.923Z,102706.06
2023-01-12T03:29:01.106Z,102712.09
2023-01-12T03:31:30.987Z,102704.03
2023-01-12T03:33:58.487Z,102701.78
2023-01-12T03:36:52.403Z,102704.91
2023-01-12T03:39:39.149Z,102711.97
2023-01-12T03:42:19.422Z,102700.19
2023-01-12T03:45:00.897Z,102705.22
2023-01-12T03:47:30.738Z,102697.16
2023-01-12T03:50:16.042Z,102698.63
2023-01-12T03:52:45.176Z,102699.50
2023-01-12T03:55:16.635Z,102690.97
2023-01-12T03:57:45.583Z,102689.84
2023-01-12T04:00:14.057Z,102690.81
2023-01-12T04:02:45.746Z,102691.06
2023-01-12T04:05:14.576Z,102688.31
2023-01-12T04:07:43.509Z,102691.75
2023-01-12T04:10:13.132Z,102690.69
2023-01-12T04:12:42.832Z,102708.94
2023-01-12T04:15:12.452Z,102707.34
2023-01-12T04:17:43.233Z,102700.13
2023-01-12T04:20:14.475Z,102693.94
2023-01-12T04:22:46.617Z,102694.06
2023-01-12T04:25:17.165Z,102684.28
2023-01-12T04:27:59.978Z,102687.06
2023-01-12T04:30:28.610Z,102693.56
2023-01-12T04:32:56.555Z,102677.19
2023-01-12T04:35:25.069Z,102683.78
2023-01-12T04:37:54.831Z,102689.53
2023-01-12T04:40:24.025Z,102686.63
2023-01-12T04:43:02.194Z,102682.28
2023-01-12T04:45:31.896Z,102680.22
2023-01-12T04:48:10.073Z,102689.59
2023-01-12T04:50:38.670Z,102688.59
2023-01-12T04:53:08.826Z,102679.34
2023-01-12T04:55:37.633Z,102688.38
2023-01-12T04:58:06.460Z,102687.91
2023-01-12T05:00:34.635Z,102685.75
2023-01-12T05:03:03.183Z,102685.75
2023-01-12T05:05:31.887Z,102677.25
2023-01-12T05:08:22.461Z,102674.66
2023-01-12T05:10:54.905Z,102662.81
2023-01-12T05:13:23.930Z,102676.16
2023-01-12T05:15:53.676Z,102669.00
2023-01-12T05:18:21.726Z,102661.38
2023-01-12T05:20:50.051Z,102662.97
2023-01-12T05:23:18.409Z,102654.72
2023-01-12T05:25:47.055Z,102661.91
2023-01-12T05:28:16.449Z,102676.16
2023-01-12T05:30:44.214Z,102684.91
2023-01-12T05:33:18.523Z,102681.56
2023-01-12T05:35:46.746Z,102683.81
2023-01-12T05:38:15.437Z,102690.25
2023-01-12T05:40:43.334Z,102689.75
2023-01-12T05:43:51.262Z,102692.63
2023-01-12T05:46:26.409Z,102695.47
2023-01-12T05:48:57.120Z,102703.22
2023-01-12T05:51:26.547Z,102698.94
2023-01-12T05:53:55.422Z,102695.47
2023-01-12T05:56:27.553Z,102702.06
2023-01-12T05:58:59.326Z,102707.38
2023-01-12T06:01:29.593Z,102702.19
2023-01-12T06:03:59.198Z,102706.63
2023-01-12T06:06:33.624Z,102708.63
2023-01-12T06:09:03.681Z,102719.03
2023-01-12T06:11:51.216Z,102703.19
2023-01-12T06:14:20.587Z,102710.91
2023-01-12T06:16:48.415Z,102715.25
2023-01-12T06:19:21.076Z,102718.59
2023-01-12T06:21:49.761Z,102722.19
2023-01-12T06:24:17.492Z,102706.72
2023-01-12T06:26:45.941Z,102705.84
2023-01-12T06:29:15.092Z,102700.28
2023-01-12T06:31:44.573Z,102703.25
2023-01-12T06:34:13.048Z,102709.44
2023-01-12T06:36:41.694Z,102699.53
2023-01-12T06:39:10.525Z,102711.03
2023-01-12T06:41:56.561Z,102707.56
2023-01-12T06:44:24.414Z,102715.63
2023-01-12T06:46:52.076Z,102713.63
2023-01-12T06:49:20.944Z,102717.34
2023-01-12T06:51:52.026Z,102711.41
2023-01-12T06:54:21.442Z,102718.09
2023-01-12T06:56:50.501Z,102722.56
2023-01-12T06:59:19.625Z,102702.81
2023-01-12T07:01:49.324Z,102720.63
2023-01-12T07:04:19.383Z,102724.34
2023-01-12T07:06:48.768Z,102721.38
2023-01-12T07:09:16.571Z,102713.44
2023-01-12T07:11:45.474Z,102722.09
2023-01-12T07:14:13.215Z,102715.31
2023-01-12T07:16:40.960Z,102718.66
2023-01-12T07:19:08.684Z,102723.09
2023-01-12T07:21:40.391Z,102721.63
2023-01-12T07:24:08.759Z,102729.03
2023-01-12T07:26:36.354Z,102732.91
2023-01-12T07:29:07.034Z,102727.72
2023-01-12T07:31:34.995Z,102732.41
2023-01-12T07:34:03.546Z,102733.53
2023-01-12T07:36:31.744Z,102729.69
2023-01-12T07:38:59.991Z,102733.03
2023-01-12T07:41:46.494Z,102735.88
2023-01-12T07:44:16.748Z,102724.63
2023-01-12T07:46:46.053Z,102746.13
2023-01-12T07:49:15.324Z,102741.81
2023-01-12T07:51:43.977Z,102731.41
2023-01-12T07:54:12.095Z,102730.56
2023-01-12T07:56:40.579Z,102732.28
2023-01-12T07:59:08.960Z,102719.69
2023-01-12T08:01:38.218Z,102744.16
2023-01-12T08:04:06.398Z,102748.38
2023-01-12T08:06:58.510Z,102739.00
2023-01-12T08:09:29.093Z,102754.31
2023-01-12T08:12:07.024Z,102760.59
2023-01-12T08:14:37.929Z,102752.19
2023-01-12T08:17:08.958Z,102754.03
2023-01-12T08:19:42.016Z,102754.91
2023-01-12T08:22:13.861Z,102760.22
2023-01-12T08:24:45.055Z,102758.38
2023-01-12T08:27:13.935Z,102761.84
2023-01-12T08:29:44.870Z,102757.88
2023-01-12T08:32:13.983Z,102763.72
2023-01-12T08:34:43.967Z,102751.44
2023-01-12T08:37:13.358Z,102763.69
2023-01-12T08:39:41.454Z,102755.00
2023-01-12T08:42:10.442Z,102777.25
2023-01-12T08:44:38.965Z,102773.16
2023-01-12T08:47:08.485Z,102777.25
2023-01-12T08:49:36.638Z,102776.47
2023-01-12T08:52:04.577Z,102788.47
2023-01-12T08:54:33.537Z,102783.50
2023-01-12T08:57:02.357Z,102785.59
2023-01-12T08:59:30.376Z,102782.84
2023-01-12T09:01:59.561Z,102783.53
2023-01-12T09:04:33.737Z,102788.19
2023-01-12T09:07:04.000Z,102792.00
2023-01-12T09:09:32.606Z,102790.22
2023-01-12T09:12:01.090Z,102784.09
2023-01-12T09:14:28.885Z,102774.00
2023-01-12T09:16:59.424Z,102767.31
2023-01-12T09:19:27.634Z,102773.69
2023-01-12T09:21:58.127Z,102778.34
2023-01-12T09:24:25.799Z,102771.63
2023-01-12T09:26:54.733Z,102769.66
2023-01-12T09:29:23.680Z,102768.72
2023-01-12T09:42:36.259Z,102766.31
2023-01-12T09:45:40.813Z,102761.84
2023-01-12T09:48:12.132Z,102768.59
2023-01-12T09:51:20.040Z,102779.22
2023-01-12T09:53:54.363Z,102776.03
2023-01-12T09:56:53.351Z,102775.88
2023-01-12T09:59:29.069Z,102783.47
2023-01-12T10:01:58.576Z,102772.19
2023-01-12T10:04:27.173Z,102773.44
2023-01-12T10:06:57.532Z,102784.59
2023-01-12T10:09:29.144Z,102784.84
2023-01-12T10:12:24.951Z,102803.94
2023-01-12T10:15:09.468Z,102783.19
2023-01-12T10:17:51.655Z,102781.19
2023-01-12T10:21:01.787Z,102784.78
2023-01-12T10:23:30.122Z,102791.13
2023-01-12T10:26:24.936Z,102796.03
2023-01-12T10:28:54.937Z,102797.38
2023-01-12T10:31:27.530Z,102798.84
2023-01-12T10:34:08.124Z,102805.78
2023-01-12T10:36:45.325Z,102809.00
2023-01-12T10:39:32.520Z,102805.47
2023-01-12T10:42:42.797Z,102808.47
2023-01-12T10:45:23.389Z,102814.03
2023-01-12T10:47:54.003Z,102822.72
2023-01-12T10:50:29.070Z,102817.06
2023-01-12T10:53:04.777Z,102819.84
2023-01-12T10:55:40.755Z,102812.91
2023-01-12T10:58:28.670Z,102823.25
2023-01-12T11:00:57.425Z,102827.38
2023-01-12T11:03:32.941Z,102822.22
2023-01-12T11:06:25.466Z,102822.25
2023-01-12T11:08:53.117Z,102812.59
2023-01-12T11:11:32.949Z,102817.06
2023-01-12T11:14:05.879Z,102807.94
2023-01-12T11:16:40.939Z,102804.69
2023-01-12T11:19:18.832Z,102802.28
2023-01-12T11:21:56.657Z,102796.41
2023-01-12T11:24:45.949Z,102790.19
2023-01-12T11:27:36.989Z,102784.69
2023-01-12T11:30:19.110Z,102787.41
2023-01-12T11:32:55.150Z,102776.53
2023-01-12T11:35:39.288Z,102774.28
2023-01-12T11:38:18.617Z,102769.75
2023-01-12T11:40:46.196Z,102767.66
2023-01-12T11:43:40.473Z,102757.25
2023-01-12T11:46:36.476Z,102753.34
2023-01-12T11:49:19.669Z,102757.78
2023-01-12T11:51:52.720Z,102747.25
2023-01-12T11:54:26.334Z,102753.69
2023-01-12T11:57:14.311Z,102758.31
2023-01-12T12:00:00.535Z,102757.91
2023-01-12T12:02:42.678Z,102738.34
2023-01-12T12:05:48.298Z,102738.44
2023-01-12T12:08:18.953Z,102729.41
2023-01-12T12:11:07.364Z,102719.53
2023-01-12T12:13:51.279Z,102729.25
2023-01-12T12:16:22.006Z,102708.31
2023-01-12T12:19:15.701Z,102713.28
2023-01-12T12:22:22.032Z,102706.88
2023-01-12T12:25:10.649Z,102697.25
2023-01-12T12:27:54.380Z,102691.44
2023-01-12T12:30:47.164Z,102692.78
2023-01-12T12:33:53.629Z,102681.59
2023-01-12T12:36:31.485Z,102666.06
2023-01-12T12:39:08.160Z,102672.72
2023-01-12T12:42:02.389Z,102669.00
2023-01-12T12:44:56.987Z,102661.63
2023-01-12T12:48:02.728Z,102663.22
2023-01-12T12:50:32.140Z,102658.56
2023-01-12T12:53:14.953Z,102647.75
2023-01-12T12:55:44.295Z,102636.94
2023-01-12T12:58:25.523Z,102634.25
2023-01-12T13:00:57.652Z,102629.84
2023-01-12T13:03:41.358Z,102626.91
2023-01-12T13:06:27.002Z,102622.97
2023-01-12T13:08:59.015Z,102606.56
2023-01-12T13:19:02.988Z,102598.31
2023-01-12T13:21:43.716Z,102582.59
2023-01-12T13:24:12.247Z,102592.91
2023-01-12T13:26:44.077Z,102562.56
2023-01-12T13:29:30.399Z,102578.44
2023-01-12T13:32:19.205Z,102572.50
2023-01-12T13:34:47.539Z,102560.56
2023-01-12T13:37:30.260Z,102577.47
2023-01-12T13:40:13.064Z,102578.53
2023-01-12T13:42:59.594Z,102559.75
2023-01-12T13:45:27.686Z,102561.88
2023-01-12T13:47:55.503Z,102564.03
2023-01-12T13:50:25.351Z,102557.81
2023-01-12T13:53:04.501Z,102558.06
2023-01-12T13:55:33.689Z,102553.78
2023-01-12T13:58:19.076Z,102551.88
2023-01-12T14:00:58.727Z,102541.84
2023-01-12T14:03:46.472Z,102549.50
2023-01-12T14:06:30.071Z,102550.31
2023-01-12T14:09:01.084Z,102551.72
2023-01-12T14:11:47.047Z,102552.78
2023-01-12T14:14:58.166Z,102544.38
2023-01-12T14:17:47.166Z,102551.81
2023-01-12T14:20:25.835Z,102533.88
2023-01-12T14:23:22.903Z,102531.94
2023-01-12T14:26:08.905Z,102533.50
2023-01-12T14:28:39.286Z,102534.38
2023-01-12T14:31:09.932Z,102531.38
2023-01-12T14:56:18.482Z,102523.69
2023-01-12T14:58:47.949Z,102516.34
2023-01-12T15:01:34.770Z,102541.75
2023-01-12T15:04:04.393Z,102541.47
2023-01-12T15:06:38.961Z,102543.84
2023-01-12T15:09:11.545Z,102547.28
2023-01-12T15:11:40.663Z,102542.81
2023-01-12T15:14:23.135Z,102531.91
2023-01-12T15:17:09.786Z,102527.16
2023-01-12T15:19:55.748Z,102535.53
2023-01-12T15:22:45.917Z,102532.53
2023-01-12T15:25:37.768Z,102536.97
2023-01-12T15:28:07.065Z,102539.41
2023-01-12T15:30:39.898Z,102539.75
2023-01-12T15:33:11.500Z,102538.38
2023-01-12T15:35:44.512Z,102540.03
2023-01-12T15:38:16.616Z,102533.31
2023-01-12T15:40:45.659Z,102536.69
2023-01-12T15:43:19.335Z,102550.09
2023-01-12T15:45:50.638Z,102547.75
2023-01-12T15:48:18.585Z,102548.13
2023-01-12T15:50:48.717Z,102549.53
2023-01-12T15:53:22.880Z,102540.69
2023-01-12T15:55:52.057Z,102539.91
2023-01-12T15:58:20.533Z,102546.78
2023-01-12T16:00:48.222Z,102540.44
2023-01-12T16:03:48.272Z,102553.91
2023-01-12T16:06:04.289Z,102558.19
2023-01-12T16:08:32.680Z,102546.75
2023-01-12T16:11:18.485Z,102548.84
2023-01-12T16:13:48.932Z,102556.84
2023-01-12T16:16:18.171Z,102551.25
2023-01-12T16:18:46.859Z,102547.06
2023-01-12T16:21:16.696Z,102551.31
2023-01-12T16:23:46.499Z,102548.34
2023-01-12T16:26:15.635Z,102549.13
2023-01-12T16:28:47.225Z,102560.34
2023-01-12T16:31:15.264Z,102569.44
2023-01-12T16:33:44.763Z,102572.38
2023-01-12T16:36:14.694Z,102579.97
2023-01-12T16:38:43.034Z,102567.47
2023-01-12T16:41:14.361Z,102575.19
2023-01-12T16:43:42.697Z,102571.19
2023-01-12T16:46:11.190Z,102576.88
2023-01-12T16:48:42.373Z,102567.31
2023-01-12T16:51:18.314Z,102572.16
2023-01-12T16:53:47.453Z,102571.53
2023-01-12T16:56:16.912Z,102573.44
2023-01-12T16:58:48.809Z,102570.06
2023-01-12T17:01:20.796Z,102573.91
2023-01-12T17:03:52.421Z,102576.69
2023-01-12T17:06:23.663Z,102578.13
2023-01-12T17:08:51.327Z,102564.94
2023-01-12T17:11:25.029Z,102579.06
2023-01-12T17:13:57.335Z,102576.34
2023-01-12T17:16:26.429Z,102582.00
2023-01-12T17:18:58.354Z,102570.38
2023-01-12T17:21:26.119Z,102576.22
2023-01-12T17:23:56.310Z,102581.38
2023-01-12T17:26:26.312Z,102589.81
2023-01-12T17:29:07.972Z,102584.19
2023-01-12T17:31:36.123Z,102583.50
2023-01-12T17:34:04.702Z,102593.13
2023-01-12T17:36:35.804Z,102585.72
2023-01-12T17:39:04.083Z,102581.59
2023-01-12T17:41:51.018Z,102586.22
2023-01-12T17:44:25.974Z,102585.38
2023-01-12T17:46:54.922Z,102591.22
2023-01-12T17:49:23.838Z,102588.63
2023-01-12T17:51:52.208Z,102591.75
2023-01-12T17:54:20.936Z,102596.38
2023-01-12T17:56:50.752Z,102586.22
2023-01-12T17:59:23.419Z,102593.13
2023-01-12T18:02:01.056Z,102589.16
2023-01-12T18:04:29.258Z,102588.63
2023-01-12T18:06:58.392Z,102596.34
2023-01-12T18:09:29.947Z,102589.66
2023-01-12T18:11:57.440Z,102592.91
2023-01-12T18:14:25.863Z,102610.41
2023-01-12T18:16:56.173Z,102605.72
2023-01-12T18:19:26.769Z,102615.00
2023-01-12T18:21:54.434Z,102599.53
2023-01-12T18:24:23.768Z,102599.50
2023-01-12T18:26:52.149Z,102598.81
2023-01-12T18:29:21.038Z,102621.84
2023-01-12T18:31:51.223Z,102621.84
2023-01-12T18:34:19.877Z,102609.78
2023-01-12T18:36:50.006Z,102615.97
2023-01-12T18:39:22.733Z,102613.91
2023-01-12T18:42:10.349Z,102603.78
2023-01-12T18:44:39.512Z,102603.75
2023-01-12T18:47:27.508Z,102604.94
2023-01-12T18:50:05.534Z,102617.56
2023-01-12T18:52:51.584Z,102613.78
2023-01-12T18:55:20.949Z,102637.63
2023-01-12T18:57:49.111Z,102619.19
2023-01-12T19:00:23.542Z,102633.63
2023-01-12T19:02:51.642Z,102628.78
2023-01-12T19:05:35.206Z,102628.78
2023-01-12T19:08:26.020Z,102636.16
2023-01-12T19:10:54.146Z,102628.44
2023-01-12T19:13:40.403Z,102632.91
2023-01-12T19:16:28.752Z,102634.06
2023-01-12T19:18:56.879Z,102628.06
2023-01-12T19:21:43.225Z,102625.31
2023-01-12T19:24:30.194Z,102622.34
2023-01-12T19:27:16.869Z,102636.91
2023-01-12T19:29:47.995Z,102634.50
2023-01-12T19:32:25.231Z,102643.06
2023-01-12T20:02:54.486Z,102650.41
2023-01-12T20:55:18.688Z,102660.97
2023-01-12T21:02:59.196Z,102665.75
2023-01-12T22:18:23.208Z,102672.84
2023-01-12T22:21:26.632Z,102686.00
2023-01-12T22:24:07.775Z,102690.75
2023-01-12T22:26:37.686Z,102688.34
2023-01-12T22:29:09.817Z,102691.06
2023-01-12T22:31:37.992Z,102684.47
2023-01-12T22:38:22.897Z,102692.38
2023-01-12T22:40:53.030Z,102690.66
2023-01-12T22:43:26.842Z,102677.59
2023-01-12T22:45:58.616Z,102688.84
2023-01-12T22:48:29.013Z,102682.50
2023-01-12T22:51:00.362Z,102685.63
2023-01-12T22:53:30.366Z,102688.22
2023-01-12T22:56:03.847Z,102681.00
2023-01-12T22:58:33.965Z,102688.22
2023-01-12T23:01:11.305Z,102682.03
2023-01-12T23:03:39.650Z,102688.22
2023-01-12T23:06:15.297Z,102690.44
2023-01-12T23:08:44.885Z,102687.84
2023-01-12T23:11:23.563Z,102678.03
2023-01-12T23:13:52.867Z,102678.19
2023-01-12T23:16:22.197Z,102675.59
2023-01-12T23:18:51.018Z,102680.53
2023-01-12T23:21:24.160Z,102678.78
2023-01-12T23:23:53.430Z,102666.41
2023-01-12T23:26:32.933Z,102665.56
2023-01-12T23:29:03.230Z,102673.63
2023-01-12T23:31:34.090Z,102676.06
2023-01-12T23:34:03.190Z,102671.91
2023-01-12T23:36:32.555Z,102673.63
2023-01-12T23:39:05.012Z,102663.81
2023-01-12T23:41:37.722Z,102667.03
2023-01-12T23:44:11.665Z,102668.50
2023-01-12T23:46:40.935Z,102669.66
2023-01-12T23:49:10.587Z,102665.66
2023-01-12T23:51:47.986Z,102666.28
2023-01-12T23:54:19.374Z,102660.53
2023-01-12T23:56:47.395Z,102665.19
2023-01-12T23:59:15.689Z,102663.47
